createdAt,value
2018-05-06T00:01:31.335Z,99.80
2018-05-06T00:04:00.709Z,99.40
2018-05-06T00:06:29.938Z,99.50
2018-05-06T00:09:00.138Z,99.70
2018-05-06T00:11:29.765Z,99.60
2018-05-06T00:13:59.959Z,99.80
2018-05-06T00:16:29.198Z,99.80
2018-05-06T00:18:58.774Z,99.80
2018-05-06T00:21:28.926Z,99.90
2018-05-06T00:23:59.032Z,99.90
2018-05-06T00:26:29.019Z,99.90
2018-05-06T00:28:58.254Z,99.90
2018-05-06T00:31:28.558Z,99.90
2018-05-06T00:33:57.922Z,99.90
2018-05-06T00:36:27.972Z,99.90
2018-05-06T00:38:57.199Z,99.90
2018-05-06T00:41:26.574Z,99.90
2018-05-06T00:43:56.004Z,99.90
2018-05-06T00:46:25.465Z,99.90
2018-05-06T00:48:54.616Z,99.90
2018-05-06T00:51:23.986Z,99.90
2018-05-06T00:53:54.043Z,99.90
2018-05-06T00:56:23.399Z,99.90
2018-05-06T00:58:52.638Z,99.90
2018-05-06T01:01:21.954Z,99.90
2018-05-06T01:03:51.682Z,99.90
2018-05-06T01:06:21.634Z,99.90
2018-05-06T01:08:50.874Z,99.90
2018-05-06T01:11:21.055Z,99.90
2018-05-06T01:13:50.304Z,99.90
2018-05-06T01:16:19.540Z,99.90
2018-05-06T01:18:48.960Z,99.90
2018-05-06T01:21:18.188Z,99.90
2018-05-06T01:23:49.003Z,99.90
2018-05-06T01:26:18.236Z,99.90
2018-05-06T01:28:47.647Z,99.90
2018-05-06T01:31:16.880Z,99.90
2018-05-06T01:33:46.405Z,99.90
2018-05-06T01:36:15.958Z,99.90
2018-05-06T01:38:45.418Z,99.90
2018-05-06T01:41:14.828Z,99.90
2018-05-06T01:43:45.051Z,99.90
2018-05-06T01:46:14.284Z,99.90
2018-05-06T01:48:43.645Z,99.90
2018-05-06T01:51:13.043Z,99.90
2018-05-06T01:53:42.455Z,99.90
2018-05-06T01:56:12.108Z,99.90
2018-05-06T01:58:41.959Z,99.90
2018-05-06T02:01:11.182Z,99.90
2018-05-06T02:03:40.687Z,99.90
2018-05-06T02:06:09.908Z,99.90
2018-05-06T02:08:39.135Z,99.90
2018-05-06T02:11:08.491Z,99.90
2018-05-06T02:13:37.839Z,99.90
2018-05-06T02:16:07.204Z,99.90
2018-05-06T02:18:36.442Z,99.90
2018-05-06T02:21:05.783Z,99.90
2018-05-06T02:23:35.531Z,99.90
2018-05-06T02:26:05.006Z,99.90
2018-05-06T02:28:34.225Z,99.90
2018-05-06T02:31:03.611Z,99.90
2018-05-06T02:33:32.843Z,99.90
2018-05-06T02:36:02.217Z,99.90
2018-05-06T02:38:31.448Z,99.90
2018-05-06T02:41:00.683Z,99.90
2018-05-06T02:43:30.014Z,99.90
2018-05-06T02:45:59.260Z,99.90
2018-05-06T02:48:29.531Z,99.90
2018-05-06T02:50:58.923Z,99.90
2018-05-06T02:53:28.343Z,99.90
2018-05-06T02:55:57.764Z,99.90
2018-05-06T02:58:27.165Z,99.90
2018-05-06T03:00:57.146Z,99.90
2018-05-06T03:03:26.767Z,99.90
2018-05-06T03:05:55.999Z,99.90
2018-05-06T03:08:26.208Z,99.90
2018-05-06T03:10:55.431Z,99.90
2018-05-06T03:13:24.767Z,99.90
2018-05-06T03:15:53.990Z,99.90
2018-05-06T03:18:23.402Z,99.90
2018-05-06T03:20:52.635Z,99.90
2018-05-06T03:23:22.676Z,99.90
2018-05-06T03:25:51.908Z,99.90
2018-05-06T03:28:21.419Z,99.90
2018-05-06T03:30:50.654Z,99.90
2018-05-06T03:33:19.995Z,99.90
2018-05-06T03:35:49.228Z,99.90
2018-05-06T03:38:18.458Z,99.90
2018-05-06T03:40:47.927Z,99.90
2018-05-06T03:43:17.167Z,99.90
2018-05-06T03:45:46.531Z,99.90
2018-05-06T03:48:15.759Z,99.90
2018-05-06T03:50:45.131Z,99.90
2018-05-06T03:53:14.371Z,99.90
2018-05-06T03:55:43.731Z,99.90
2018-05-06T03:58:30.732Z,99.90
2018-05-06T04:01:00.151Z,99.90
2018-05-06T04:03:29.375Z,99.90
2018-05-06T04:06:00.178Z,99.90
2018-05-06T04:08:30.156Z,99.90
2018-05-06T04:10:59.502Z,99.90
2018-05-06T04:13:29.039Z,99.90
2018-05-06T04:15:59.223Z,99.90
2018-05-06T04:18:29.145Z,99.90
2018-05-06T04:20:58.655Z,99.90
2018-05-06T04:23:28.018Z,99.90
2018-05-06T04:25:57.454Z,99.90
2018-05-06T04:28:26.689Z,99.90
2018-05-06T04:30:56.051Z,99.90
2018-05-06T04:33:25.320Z,99.90
2018-05-06T04:35:55.492Z,99.90
2018-05-06T04:38:24.718Z,99.90
2018-05-06T04:40:53.950Z,99.90
2018-05-06T04:43:23.415Z,99.90
2018-05-06T04:45:54.232Z,99.90
2018-05-06T04:48:23.627Z,99.90
2018-05-06T04:50:53.016Z,99.90
2018-05-06T04:53:22.411Z,99.90
2018-05-06T04:55:51.607Z,99.90
2018-05-06T04:58:21.887Z,99.90
2018-05-06T05:00:51.886Z,99.90
2018-05-06T05:03:21.270Z,99.90
2018-05-06T05:05:50.792Z,99.90
2018-05-06T05:08:21.330Z,99.90
2018-05-06T05:10:52.064Z,99.20
2018-05-06T05:13:22.183Z,94.40
2018-05-06T05:15:52.183Z,91.10
2018-05-06T05:18:21.507Z,90.80
2018-05-06T05:20:51.066Z,84.90
2018-05-06T05:23:20.612Z,79.60
2018-05-06T05:25:49.842Z,67.90
2018-05-06T05:28:19.402Z,66.50
2018-05-06T05:30:49.460Z,61.90
2018-05-06T05:33:18.715Z,58.00
2018-05-06T05:35:48.127Z,57.70
2018-05-06T05:38:17.364Z,57.60
2018-05-06T05:40:46.748Z,57.50
2018-05-06T05:43:16.707Z,57.40
2018-05-06T05:45:46.042Z,56.10
2018-05-06T05:48:15.495Z,55.90
2018-05-06T05:50:44.955Z,53.80
2018-05-06T05:53:14.954Z,51.50
2018-05-06T05:55:45.322Z,51.40
2018-05-06T05:58:14.962Z,51.90
2018-05-06T06:00:44.538Z,49.30
2018-05-06T06:03:13.736Z,48.30
2018-05-06T06:05:43.839Z,49.10
2018-05-06T06:08:13.084Z,49.10
2018-05-06T06:10:42.841Z,48.10
2018-05-06T06:13:13.024Z,47.70
2018-05-06T06:15:42.481Z,46.80
2018-05-06T06:18:11.814Z,47.10
2018-05-06T06:20:41.289Z,48.20
2018-05-06T06:23:11.288Z,46.40
2018-05-06T06:25:40.699Z,46.10
2018-05-06T06:28:09.932Z,45.70
2018-05-06T06:30:39.567Z,47.90
2018-05-06T06:33:09.232Z,47.40
2018-05-06T06:35:38.487Z,48.10
2018-05-06T06:38:08.029Z,48.50
2018-05-06T06:40:37.263Z,49.70
2018-05-06T06:43:06.623Z,50.20
2018-05-06T06:45:36.266Z,49.00
2018-05-06T06:48:06.129Z,48.40
2018-05-06T06:50:36.250Z,47.60
2018-05-06T06:53:05.594Z,47.30
2018-05-06T06:55:34.962Z,45.80
2018-05-06T06:58:04.475Z,46.10
2018-05-06T07:00:33.703Z,45.60
2018-05-06T07:03:03.084Z,46.40
2018-05-06T07:05:33.755Z,46.30
2018-05-06T07:08:03.115Z,45.70
2018-05-06T07:10:32.359Z,46.40
2018-05-06T07:13:01.719Z,45.90
2018-05-06T07:15:31.566Z,46.20
2018-05-06T07:18:00.912Z,46.50
2018-05-06T07:20:30.149Z,47.10
2018-05-06T07:22:59.496Z,47.10
2018-05-06T07:25:28.734Z,48.50
2018-05-06T07:27:57.956Z,49.20
2018-05-06T07:30:28.043Z,51.20
2018-05-06T07:32:57.694Z,51.10
2018-05-06T07:35:27.831Z,51.30
2018-05-06T07:37:57.059Z,50.20
2018-05-06T07:40:26.494Z,49.10
2018-05-06T07:42:55.855Z,50.30
2018-05-06T07:45:25.704Z,50.60
2018-05-06T07:47:55.420Z,51.30
2018-05-06T07:50:24.933Z,50.70
2018-05-06T07:52:54.519Z,50.80
2018-05-06T07:55:23.936Z,51.30
2018-05-06T07:57:53.271Z,49.10
2018-05-06T08:00:22.739Z,50.60
2018-05-06T08:02:52.738Z,54.00
2018-05-06T08:05:22.169Z,54.00
2018-05-06T08:07:51.405Z,56.30
2018-05-06T08:10:21.583Z,58.80
2018-05-06T08:12:50.820Z,58.60
2018-05-06T08:15:20.185Z,61.50
2018-05-06T08:17:49.411Z,62.80
2018-05-06T08:20:18.659Z,64.80
2018-05-06T08:22:48.912Z,65.20
2018-05-06T08:25:18.143Z,68.90
2018-05-06T08:27:47.502Z,67.40
2018-05-06T08:30:16.736Z,68.90
2018-05-06T08:32:46.113Z,69.80
2018-05-06T08:35:15.755Z,69.70
2018-05-06T08:37:46.965Z,72.10
2018-05-06T08:40:16.388Z,70.50
2018-05-06T08:42:45.780Z,69.00
2018-05-06T08:45:15.016Z,70.50
2018-05-06T08:47:44.376Z,69.20
2018-05-06T08:50:13.611Z,67.60
2018-05-06T08:52:42.970Z,67.20
2018-05-06T08:55:12.203Z,69.60
2018-05-06T08:57:41.571Z,68.20
2018-05-06T09:00:10.934Z,68.10
2018-05-06T09:02:40.387Z,71.50
2018-05-06T09:05:09.690Z,68.90
2018-05-06T09:07:39.805Z,69.80
2018-05-06T09:10:09.039Z,70.00
2018-05-06T09:12:39.228Z,65.70
2018-05-06T09:15:08.469Z,67.80
2018-05-06T09:17:37.704Z,63.50
2018-05-06T09:20:07.538Z,68.40
2018-05-06T09:22:36.771Z,63.50
2018-05-06T09:25:06.299Z,64.00
2018-05-06T09:27:35.533Z,64.70
2018-05-06T09:30:04.952Z,66.40
2018-05-06T09:32:34.941Z,65.60
2018-05-06T09:35:05.068Z,62.40
2018-05-06T09:37:35.022Z,60.20
2018-05-06T09:40:04.383Z,60.80
2018-05-06T09:42:33.622Z,61.10
2018-05-06T09:45:03.007Z,61.40
2018-05-06T09:47:33.158Z,61.80
2018-05-06T09:50:03.447Z,62.50
2018-05-06T09:52:33.043Z,62.50
2018-05-06T09:55:03.307Z,58.90
2018-05-06T09:57:33.830Z,59.30
2018-05-06T10:00:04.154Z,59.60
2018-05-06T10:02:33.495Z,59.40
2018-05-06T10:05:02.957Z,60.00
2018-05-06T10:07:32.986Z,57.10
2018-05-06T10:10:02.373Z,57.00
2018-05-06T10:12:31.594Z,58.20
2018-05-06T10:15:01.027Z,52.60
2018-05-06T10:17:30.281Z,52.50
2018-05-06T10:20:00.611Z,51.40
2018-05-06T10:22:30.216Z,51.30
2018-05-06T10:24:59.460Z,52.70
2018-05-06T10:27:28.906Z,53.40
2018-05-06T10:29:58.972Z,49.90
2018-05-06T10:32:28.527Z,51.30
2018-05-06T10:34:57.774Z,51.60
2018-05-06T10:37:28.169Z,49.70
2018-05-06T10:39:58.177Z,51.20
2018-05-06T10:42:28.448Z,50.10
2018-05-06T10:44:58.420Z,50.10
2018-05-06T10:47:27.827Z,50.10
2018-05-06T10:49:57.939Z,49.30
2018-05-06T10:52:28.481Z,49.30
2018-05-06T10:54:57.709Z,49.40
2018-05-06T10:57:27.073Z,50.00
2018-05-06T10:59:57.057Z,49.70
2018-05-06T11:02:27.316Z,50.00
2018-05-06T11:04:56.783Z,50.00
2018-05-06T11:07:26.127Z,50.00
2018-05-06T11:09:56.142Z,49.60
2018-05-06T11:12:25.491Z,49.50
2018-05-06T11:14:54.719Z,50.00
2018-05-06T11:17:24.351Z,49.90
2018-05-06T11:19:54.434Z,50.50
2018-05-06T11:22:23.966Z,50.40
2018-05-06T11:24:54.067Z,51.20
2018-05-06T11:27:23.590Z,51.30
2018-05-06T11:29:52.840Z,52.40
2018-05-06T11:32:22.195Z,51.00
2018-05-06T11:34:51.427Z,52.40
2018-05-06T11:37:20.672Z,51.10
2018-05-06T11:39:50.111Z,51.20
2018-05-06T11:42:20.123Z,52.20
2018-05-06T11:44:49.624Z,52.20
2018-05-06T11:47:18.885Z,51.60
2018-05-06T11:49:48.451Z,51.60
2018-05-06T11:52:18.643Z,51.60
2018-05-06T11:54:48.056Z,51.60
2018-05-06T11:57:16.587Z,51.90
2018-05-06T11:59:46.710Z,52.70
2018-05-06T12:02:15.961Z,52.70
2018-05-06T12:04:45.504Z,51.70
2018-05-06T12:07:15.159Z,50.90
2018-05-06T12:09:45.296Z,52.10
2018-05-06T12:12:14.536Z,51.80
2018-05-06T12:14:43.998Z,52.70
2018-05-06T12:17:13.600Z,52.50
2018-05-06T12:19:43.019Z,53.00
2018-05-06T12:22:13.567Z,52.50
2018-05-06T12:24:43.727Z,52.90
2018-05-06T12:27:12.990Z,52.80
2018-05-06T12:29:43.293Z,53.20
2018-05-06T12:32:12.521Z,53.10
2018-05-06T12:34:41.766Z,53.00
2018-05-06T12:37:11.239Z,52.80
2018-05-06T12:39:40.474Z,52.20
2018-05-06T12:42:10.072Z,53.00
2018-05-06T12:44:39.230Z,52.80
2018-05-06T12:47:08.599Z,53.00
2018-05-06T12:49:38.595Z,52.30
2018-05-06T12:52:08.224Z,52.20
2018-05-06T12:54:37.949Z,52.30
2018-05-06T12:57:07.243Z,52.20
2018-05-06T12:59:37.235Z,52.90
2018-05-06T13:02:06.674Z,52.90
2018-05-06T13:04:35.988Z,52.90
2018-05-06T13:07:05.464Z,53.20
2018-05-06T13:09:34.692Z,53.60
2018-05-06T13:12:04.082Z,53.50
2018-05-06T13:14:34.483Z,52.70
2018-05-06T13:17:04.099Z,52.70
2018-05-06T13:19:33.470Z,52.80
2018-05-06T13:22:03.325Z,52.50
2018-05-06T13:24:32.563Z,52.80
2018-05-06T13:27:01.892Z,53.20
2018-05-06T13:29:31.159Z,53.50
2018-05-06T13:32:00.723Z,52.20
2018-05-06T13:34:30.679Z,52.50
2018-05-06T13:37:00.355Z,52.60
2018-05-06T13:39:30.359Z,55.40
2018-05-06T13:41:59.595Z,55.40
2018-05-06T13:44:30.123Z,53.30
2018-05-06T13:47:00.139Z,53.30
2018-05-06T13:49:29.523Z,53.30
2018-05-06T13:51:59.558Z,51.60
2018-05-06T13:54:28.983Z,52.10
2018-05-06T13:56:58.423Z,52.70
2018-05-06T13:59:28.563Z,52.70
2018-05-06T14:01:57.797Z,52.70
2018-05-06T14:04:27.991Z,52.60
2018-05-06T14:06:58.364Z,52.70
2018-05-06T14:09:28.844Z,52.60
2018-05-06T14:11:58.070Z,52.50
2018-05-06T14:14:27.453Z,53.00
2018-05-06T14:16:56.975Z,51.90
2018-05-06T14:19:27.131Z,51.40
2018-05-06T14:21:56.680Z,51.30
2018-05-06T14:24:27.135Z,51.70
2018-05-06T14:26:56.427Z,52.70
2018-05-06T14:29:25.711Z,52.60
2018-05-06T14:31:56.331Z,53.10
2018-05-06T14:34:25.743Z,53.10
2018-05-06T14:36:54.976Z,53.60
2018-05-06T14:39:24.367Z,53.50
2018-05-06T14:41:54.364Z,53.40
2018-05-06T14:44:23.771Z,53.40
2018-05-06T14:47:10.799Z,53.40
2018-05-06T14:49:40.383Z,54.20
2018-05-06T14:52:09.846Z,54.40
2018-05-06T14:54:40.853Z,53.50
2018-05-06T14:57:10.847Z,53.30
2018-05-06T14:59:40.315Z,53.50
2018-05-06T15:02:10.247Z,53.70
2018-05-06T15:04:39.680Z,53.70
2018-05-06T15:07:09.680Z,53.80
2018-05-06T15:09:39.110Z,53.80
2018-05-06T15:12:09.219Z,54.20
2018-05-06T15:14:38.727Z,54.20
2018-05-06T15:17:08.848Z,54.70
2018-05-06T15:19:38.843Z,54.20
2018-05-06T15:22:08.266Z,54.10
2018-05-06T15:24:37.510Z,54.60
2018-05-06T15:27:06.870Z,55.00
2018-05-06T15:29:36.388Z,54.60
2018-05-06T15:32:06.091Z,54.40
2018-05-06T15:34:36.085Z,54.70
2018-05-06T15:37:05.513Z,54.60
2018-05-06T15:39:34.927Z,54.70
2018-05-06T15:42:04.315Z,54.20
2018-05-06T15:44:33.547Z,54.00
2018-05-06T15:47:02.915Z,54.50
2018-05-06T15:49:32.147Z,54.10
2018-05-06T15:52:01.558Z,54.60
2018-05-06T15:54:31.278Z,54.70
2018-05-06T15:57:00.739Z,55.40
2018-05-06T15:59:30.731Z,54.00
2018-05-06T16:05:21.457Z,53.80
2018-05-06T16:07:50.845Z,53.90
2018-05-06T16:10:20.825Z,54.20
2018-05-06T16:12:50.175Z,54.00
2018-05-06T16:15:19.535Z,54.80
2018-05-06T16:17:48.897Z,55.20
2018-05-06T16:20:18.120Z,54.60
2018-05-06T16:22:48.232Z,54.80
2018-05-06T16:25:17.559Z,54.50
2018-05-06T16:27:47.028Z,54.80
2018-05-06T16:30:16.439Z,54.20
2018-05-06T16:32:46.459Z,54.20
2018-05-06T16:35:15.858Z,54.40
2018-05-06T16:37:45.226Z,54.30
2018-05-06T16:40:14.517Z,55.40
2018-05-06T16:42:43.968Z,54.90
2018-05-06T16:45:13.467Z,55.00
2018-05-06T16:47:42.715Z,55.20
2018-05-06T16:50:12.092Z,55.30
2018-05-06T16:52:42.153Z,55.80
2018-05-06T17:01:07.658Z,55.50
2018-05-06T17:06:37.168Z,56.40
2018-05-06T17:09:06.407Z,56.30
2018-05-06T17:11:35.997Z,56.60
2018-05-06T17:14:05.375Z,56.60
2018-05-06T17:16:34.787Z,56.70
2018-05-06T17:19:04.530Z,57.20
2018-05-06T17:21:33.977Z,57.40
2018-05-06T17:24:03.247Z,57.70
2018-05-06T17:26:32.624Z,57.90
2018-05-06T17:29:02.639Z,58.30
2018-05-06T17:31:32.019Z,58.30
2018-05-06T17:34:01.263Z,58.40
2018-05-06T17:36:30.617Z,58.60
2018-05-06T17:39:00.233Z,58.90
2018-05-06T17:41:30.472Z,59.10
2018-05-06T17:44:00.571Z,59.00
2018-05-06T17:46:29.805Z,58.90
2018-05-06T17:48:59.381Z,59.60
2018-05-06T17:51:28.984Z,59.70
2018-05-06T17:53:58.400Z,60.00
2018-05-06T17:56:27.628Z,60.00
2018-05-06T17:58:56.971Z,60.00
2018-05-06T18:01:26.206Z,60.30
2018-05-06T18:03:56.321Z,61.50
2018-05-06T18:06:25.570Z,61.20
2018-05-06T18:08:55.527Z,61.80
2018-05-06T18:11:25.601Z,62.60
2018-05-06T18:13:55.350Z,62.20
2018-05-06T18:16:24.583Z,62.30
2018-05-06T18:18:53.975Z,62.80
2018-05-06T18:21:24.008Z,64.00
2018-05-06T18:23:53.384Z,63.90
2018-05-06T18:26:22.620Z,64.60
2018-05-06T18:28:52.347Z,65.20
2018-05-06T18:31:21.917Z,65.70
2018-05-06T18:33:52.226Z,67.40
2018-05-06T18:36:21.476Z,67.30
2018-05-06T18:38:51.443Z,68.50
2018-05-06T18:41:20.960Z,69.50
2018-05-06T18:43:50.999Z,71.70
2018-05-06T18:46:20.406Z,71.50
2018-05-06T18:48:49.612Z,72.70
2018-05-06T18:51:19.202Z,74.40
2018-05-06T18:53:49.204Z,75.80
2018-05-06T18:56:18.614Z,75.70
2018-05-06T18:58:48.967Z,78.80
2018-05-06T19:01:18.439Z,78.60
2018-05-06T19:03:47.671Z,79.70
2018-05-06T19:06:17.154Z,80.70
2018-05-06T19:08:47.171Z,84.20
2018-05-06T19:11:16.579Z,84.00
2018-05-06T19:13:46.582Z,88.70
2018-05-06T19:16:15.943Z,88.70
2018-05-06T19:18:45.990Z,89.60
2018-05-06T19:21:15.630Z,90.50
2018-05-06T19:23:45.801Z,90.90
2018-05-06T19:26:15.146Z,91.30
2018-05-06T19:28:44.370Z,91.80
2018-05-06T19:31:13.871Z,92.10
2018-05-06T19:33:45.019Z,92.10
2018-05-06T19:36:14.796Z,92.50
2018-05-06T19:38:44.811Z,92.90
2018-05-06T19:41:14.852Z,92.90
2018-05-06T19:43:44.843Z,93.40
2018-05-06T19:46:15.015Z,93.30
2018-05-06T19:48:44.291Z,93.50
2018-05-06T19:51:13.559Z,93.60
2018-05-06T19:53:42.976Z,93.70
2018-05-06T19:56:13.549Z,93.90
2018-05-06T19:58:43.003Z,94.30
2018-05-06T20:01:12.404Z,94.10
2018-05-06T20:03:41.817Z,94.20
2018-05-06T20:06:12.652Z,94.40
2018-05-06T20:08:42.862Z,94.60
2018-05-06T20:11:12.108Z,94.60
2018-05-06T20:13:41.475Z,94.70
2018-05-06T20:16:12.281Z,95.00
2018-05-06T20:18:42.476Z,95.00
2018-05-06T20:21:12.040Z,95.00
2018-05-06T20:23:41.544Z,95.40
2018-05-06T20:26:10.894Z,95.40
2018-05-06T20:28:40.135Z,95.60
2018-05-06T20:31:09.651Z,95.60
2018-05-06T20:33:38.896Z,95.60
2018-05-06T20:36:08.665Z,95.80
2018-05-06T20:38:38.155Z,95.90
2018-05-06T20:41:07.898Z,96.10
2018-05-06T20:43:37.847Z,96.30
2018-05-06T20:46:07.405Z,96.40
2018-05-06T20:48:36.952Z,96.40
2018-05-06T20:51:06.419Z,96.80
2018-05-06T20:53:35.657Z,97.00
2018-05-06T20:56:05.035Z,97.50
2018-05-06T20:58:35.036Z,97.20
2018-05-06T21:01:04.435Z,97.10
2018-05-06T21:03:33.671Z,97.20
2018-05-06T21:06:03.688Z,97.30
2018-05-06T21:08:32.930Z,97.20
2018-05-06T21:11:02.890Z,97.30
2018-05-06T21:13:32.895Z,97.60
2018-05-06T21:16:02.292Z,97.50
2018-05-06T21:18:32.475Z,97.90
2018-05-06T21:21:02.327Z,97.70
2018-05-06T21:23:31.561Z,97.70
2018-05-06T21:26:00.803Z,97.90
2018-05-06T21:28:30.278Z,97.90
2018-05-06T21:31:00.262Z,98.10
2018-05-06T21:33:29.794Z,98.10
2018-05-06T21:35:59.028Z,98.40
2018-05-06T21:38:28.461Z,98.50
2018-05-06T21:40:57.695Z,98.60
2018-05-06T21:43:27.115Z,98.60
2018-05-06T21:45:56.299Z,98.70
2018-05-06T21:48:25.659Z,98.80
2018-05-06T21:50:55.263Z,99.10
2018-05-06T21:53:24.676Z,99.10
2018-05-06T21:55:53.915Z,99.30
2018-05-06T21:58:23.753Z,99.20
2018-05-06T22:00:53.199Z,99.40
2018-05-06T22:03:24.131Z,99.70
2018-05-06T22:05:53.632Z,99.30
2018-05-06T22:08:22.876Z,99.30
2018-05-06T22:10:52.239Z,99.30
2018-05-06T22:13:21.487Z,99.20
2018-05-06T22:15:50.861Z,99.50
2018-05-06T22:18:20.089Z,99.40
2018-05-06T22:20:49.683Z,99.30
2018-05-06T22:23:18.986Z,99.20
2018-05-06T22:25:48.662Z,99.10
2018-05-06T22:28:18.164Z,99.10
2018-05-06T22:30:47.672Z,99.00
2018-05-06T22:33:16.903Z,98.90
2018-05-06T22:35:46.271Z,98.80
2018-05-06T22:38:15.502Z,98.90
2018-05-06T22:40:45.694Z,98.80
2018-05-06T22:43:14.968Z,98.90
2018-05-06T22:45:44.295Z,98.70
2018-05-06T22:48:13.525Z,98.70
2018-05-06T22:50:42.895Z,98.70
2018-05-06T22:53:12.287Z,98.60
2018-05-06T22:55:41.519Z,98.70
2018-05-06T22:58:11.723Z,98.60
2018-05-06T23:00:41.767Z,98.60
2018-05-06T23:03:11.927Z,98.80
2018-05-06T23:05:42.515Z,98.80
2018-05-06T23:08:11.901Z,98.80
2018-05-06T23:10:41.124Z,98.90
2018-05-06T23:13:10.480Z,98.90
2018-05-06T23:15:39.715Z,99.00
2018-05-06T23:18:09.047Z,98.90
2018-05-06T23:20:38.275Z,98.90
2018-05-06T23:23:07.919Z,98.90
2018-05-06T23:25:37.402Z,98.90
2018-05-06T23:28:06.739Z,98.90
2018-05-06T23:30:36.937Z,99.10
2018-05-06T23:33:06.273Z,99.10
2018-05-06T23:35:35.583Z,99.20
2018-05-06T23:38:04.915Z,99.40
2018-05-06T23:40:34.143Z,99.70
2018-05-06T23:43:03.482Z,99.50
2018-05-06T23:45:32.726Z,99.80
2018-05-06T23:48:02.057Z,99.80
2018-05-06T23:50:32.269Z,99.90
2018-05-06T23:53:01.520Z,99.80
2018-05-06T23:55:31.927Z,99.90
2018-05-06T23:58:01.544Z,99.90
